sensor_id;sensor_type;location;lat;lon;timestamp;pressure;altitude;pressure_sealevel;temperature
10869;BMP180;62667;48.698;8.762;2023-12-20T00:00:36;95920.00;;;5.60
10869;BMP180;62667;48.698;8.762;2023-12-20T00:03:04;95917.00;;;5.70
10869;BMP180;62667;48.698;8.762;2023-12-20T00:05:31;95910.00;;;5.70
10869;BMP180;62667;48.698;8.762;2023-12-20T00:07:59;95913.00;;;5.80
10869;BMP180;62667;48.698;8.762;2023-12-20T00:10:26;95906.00;;;5.90
10869;BMP180;62667;48.698;8.762;2023-12-20T00:12:54;95908.00;;;5.90
10869;BMP180;62667;48.698;8.762;2023-12-20T00:15:21;95909.00;;;6.00
10869;BMP180;62667;48.698;8.762;2023-12-20T00:17:48;95901.00;;;6.10
10869;BMP180;62667;48.698;8.762;2023-12-20T00:20:16;95900.00;;;6.10
10869;BMP180;62667;48.698;8.762;2023-12-20T00:22:43;95899.00;;;5.90
10869;BMP180;62667;48.698;8.762;2023-12-20T00:25:11;95906.00;;;5.80
10869;BMP180;62667;48.698;8.762;2023-12-20T00:27:38;95907.00;;;5.80
10869;BMP180;62667;48.698;8.762;2023-12-20T00:30:08;95907.00;;;5.70
10869;BMP180;62667;48.698;8.762;2023-12-20T00:32:36;95904.00;;;5.80
10869;BMP180;62667;48.698;8.762;2023-12-20T00:35:04;95896.00;;;5.60
10869;BMP180;62667;48.698;8.762;2023-12-20T00:37:33;95900.00;;;5.50
10869;BMP180;62667;48.698;8.762;2023-12-20T00:40:00;95899.00;;;5.60
10869;BMP180;62667;48.698;8.762;2023-12-20T00:42:27;95893.00;;;5.60
10869;BMP180;62667;48.698;8.762;2023-12-20T00:44:54;95879.00;;;5.60
10869;BMP180;62667;48.698;8.762;2023-12-20T00:47:22;95881.00;;;5.60
10869;BMP180;62667;48.698;8.762;2023-12-20T00:49:49;95882.00;;;5.60
10869;BMP180;62667;48.698;8.762;2023-12-20T00:52:16;95886.00;;;5.70
10869;BMP180;62667;48.698;8.762;2023-12-20T00:54:44;95891.00;;;5.60
10869;BMP180;62667;48.698;8.762;2023-12-20T00:57:11;95888.00;;;5.70
10869;BMP180;62667;48.698;8.762;2023-12-20T00:59:38;95898.00;;;5.60
10869;BMP180;62667;48.698;8.762;2023-12-20T01:02:05;95901.00;;;5.70
10869;BMP180;62667;48.698;8.762;2023-12-20T01:04:34;95887.00;;;5.50
10869;BMP180;62667;48.698;8.762;2023-12-20T01:07:01;95905.00;;;5.50
10869;BMP180;62667;48.698;8.762;2023-12-20T01:09:28;95908.00;;;5.50
10869;BMP180;62667;48.698;8.762;2023-12-20T01:11:55;95912.00;;;5.40
10869;BMP180;62667;48.698;8.762;2023-12-20T01:14:22;95910.00;;;5.60
10869;BMP180;62667;48.698;8.762;2023-12-20T01:16:49;95906.00;;;5.50
10869;BMP180;62667;48.698;8.762;2023-12-20T01:19:16;95899.00;;;5.40
10869;BMP180;62667;48.698;8.762;2023-12-20T01:21:45;95912.00;;;5.60
10869;BMP180;62667;48.698;8.762;2023-12-20T01:24:12;95907.00;;;5.70
10869;BMP180;62667;48.698;8.762;2023-12-20T01:26:39;95918.00;;;5.80
10869;BMP180;62667;48.698;8.762;2023-12-20T01:29:06;95909.00;;;5.70
10869;BMP180;62667;48.698;8.762;2023-12-20T01:31:33;95915.00;;;5.80
10869;BMP180;62667;48.698;8.762;2023-12-20T01:34:00;95916.00;;;5.80
10869;BMP180;62667;48.698;8.762;2023-12-20T01:36:27;95911.00;;;5.70
10869;BMP180;62667;48.698;8.762;2023-12-20T01:38:56;95913.00;;;5.70
10869;BMP180;62667;48.698;8.762;2023-12-20T01:41:23;95913.00;;;5.70
10869;BMP180;62667;48.698;8.762;2023-12-20T01:43:50;95892.00;;;5.70
10869;BMP180;62667;48.698;8.762;2023-12-20T01:46:20;95900.00;;;5.70
10869;BMP180;62667;48.698;8.762;2023-12-20T01:48:48;95889.00;;;5.80
10869;BMP180;62667;48.698;8.762;2023-12-20T01:51:15;95909.00;;;5.80
10869;BMP180;62667;48.698;8.762;2023-12-20T01:53:44;95907.00;;;5.70
10869;BMP180;62667;48.698;8.762;2023-12-20T01:56:13;95902.00;;;5.70
10869;BMP180;62667;48.698;8.762;2023-12-20T01:58:46;95899.00;;;5.70
10869;BMP180;62667;48.698;8.762;2023-12-20T02:01:14;95904.00;;;5.60
10869;BMP180;62667;48.698;8.762;2023-12-20T02:03:42;95912.00;;;5.60
10869;BMP180;62667;48.698;8.762;2023-12-20T02:06:09;95915.00;;;5.60
10869;BMP180;62667;48.698;8.762;2023-12-20T02:08:37;95909.00;;;5.60
10869;BMP180;62667;48.698;8.762;2023-12-20T02:11:04;95911.00;;;5.50
10869;BMP180;62667;48.698;8.762;2023-12-20T02:13:32;95908.00;;;5.60
10869;BMP180;62667;48.698;8.762;2023-12-20T02:16:00;95916.00;;;5.70
10869;BMP180;62667;48.698;8.762;2023-12-20T02:18:28;95904.00;;;5.50
10869;BMP180;62667;48.698;8.762;2023-12-20T02:20:55;95908.00;;;5.40
10869;BMP180;62667;48.698;8.762;2023-12-20T02:23:23;95902.00;;;5.50
10869;BMP180;62667;48.698;8.762;2023-12-20T02:25:51;95896.00;;;5.50
10869;BMP180;62667;48.698;8.762;2023-12-20T02:28:19;95904.00;;;5.50
10869;BMP180;62667;48.698;8.762;2023-12-20T02:30:47;95904.00;;;5.40
10869;BMP180;62667;48.698;8.762;2023-12-20T02:33:15;95901.00;;;5.40
10869;BMP180;62667;48.698;8.762;2023-12-20T02:35:43;95901.00;;;5.40
10869;BMP180;62667;48.698;8.762;2023-12-20T02:38:10;95891.00;;;5.40
10869;BMP180;62667;48.698;8.762;2023-12-20T02:40:38;95907.00;;;5.30
10869;BMP180;62667;48.698;8.762;2023-12-20T02:43:05;95905.00;;;5.30
10869;BMP180;62667;48.698;8.762;2023-12-20T02:45:32;95907.00;;;5.40
10869;BMP180;62667;48.698;8.762;2023-12-20T02:47:59;95910.00;;;5.30
10869;BMP180;62667;48.698;8.762;2023-12-20T02:50:26;95907.00;;;5.20
10869;BMP180;62667;48.698;8.762;2023-12-20T02:52:53;95910.00;;;5.30
10869;BMP180;62667;48.698;8.762;2023-12-20T02:55:20;95910.00;;;5.40
10869;BMP180;62667;48.698;8.762;2023-12-20T02:57:49;95914.00;;;5.30
10869;BMP180;62667;48.698;8.762;2023-12-20T03:00:16;95906.00;;;5.20
10869;BMP180;62667;48.698;8.762;2023-12-20T03:02:43;95903.00;;;5.30
10869;BMP180;62667;48.698;8.762;2023-12-20T03:05:10;95919.00;;;5.10
10869;BMP180;62667;48.698;8.762;2023-12-20T03:07:37;95918.00;;;5.20
10869;BMP180;62667;48.698;8.762;2023-12-20T03:10:06;95905.00;;;5.20
10869;BMP180;62667;48.698;8.762;2023-12-20T03:12:35;95901.00;;;5.10
10869;BMP180;62667;48.698;8.762;2023-12-20T03:15:04;95908.00;;;4.90
10869;BMP180;62667;48.698;8.762;2023-12-20T03:17:31;95917.00;;;4.90
10869;BMP180;62667;48.698;8.762;2023-12-20T03:19:58;95919.00;;;5.00
10869;BMP180;62667;48.698;8.762;2023-12-20T03:22:25;95928.00;;;5.10
10869;BMP180;62667;48.698;8.762;2023-12-20T03:24:52;95926.00;;;4.90
10869;BMP180;62667;48.698;8.762;2023-12-20T03:27:19;95929.00;;;4.80
10869;BMP180;62667;48.698;8.762;2023-12-20T03:29:46;95929.00;;;4.80
10869;BMP180;62667;48.698;8.762;2023-12-20T03:32:14;95926.00;;;4.80
10869;BMP180;62667;48.698;8.762;2023-12-20T03:34:41;95934.00;;;4.90
10869;BMP180;62667;48.698;8.762;2023-12-20T03:37:07;95935.00;;;4.70
10869;BMP180;62667;48.698;8.762;2023-12-20T03:39:34;95935.00;;;4.80
10869;BMP180;62667;48.698;8.762;2023-12-20T03:42:02;95950.00;;;4.80
10869;BMP180;62667;48.698;8.762;2023-12-20T03:44:29;95937.00;;;4.70
10869;BMP180;62667;48.698;8.762;2023-12-20T03:46:56;95930.00;;;4.80
10869;BMP180;62667;48.698;8.762;2023-12-20T03:49:24;95938.00;;;4.70
10869;BMP180;62667;48.698;8.762;2023-12-20T03:51:51;95936.00;;;4.50
10869;BMP180;62667;48.698;8.762;2023-12-20T03:54:18;95935.00;;;4.70
10869;BMP180;62667;48.698;8.762;2023-12-20T03:56:45;95945.00;;;4.60
10869;BMP180;62667;48.698;8.762;2023-12-20T03:59:12;95941.00;;;4.70
10869;BMP180;62667;48.698;8.762;2023-12-20T04:01:43;95956.00;;;4.70
10869;BMP180;62667;48.698;8.762;2023-12-20T04:04:11;95949.00;;;4.60
10869;BMP180;62667;48.698;8.762;2023-12-20T04:06:40;95938.00;;;4.50
10869;BMP180;62667;48.698;8.762;2023-12-20T04:09:07;95945.00;;;4.50
10869;BMP180;62667;48.698;8.762;2023-12-20T04:11:34;95946.00;;;4.50
10869;BMP180;62667;48.698;8.762;2023-12-20T04:14:02;95949.00;;;4.50
10869;BMP180;62667;48.698;8.762;2023-12-20T04:16:30;95961.00;;;4.50
10869;BMP180;62667;48.698;8.762;2023-12-20T04:18:57;95951.00;;;4.50
10869;BMP180;62667;48.698;8.762;2023-12-20T04:21:24;95954.00;;;4.50
10869;BMP180;62667;48.698;8.762;2023-12-20T04:23:53;95935.00;;;4.60
10869;BMP180;62667;48.698;8.762;2023-12-20T04:26:20;95948.00;;;4.40
10869;BMP180;62667;48.698;8.762;2023-12-20T04:28:47;95947.00;;;4.40
10869;BMP180;62667;48.698;8.762;2023-12-20T04:31:14;95947.00;;;4.40
10869;BMP180;62667;48.698;8.762;2023-12-20T04:33:41;95950.00;;;4.40
10869;BMP180;62667;48.698;8.762;2023-12-20T04:36:08;95958.00;;;4.40
10869;BMP180;62667;48.698;8.762;2023-12-20T04:38:36;95978.00;;;4.50
10869;BMP180;62667;48.698;8.762;2023-12-20T04:41:04;95957.00;;;4.50
10869;BMP180;62667;48.698;8.762;2023-12-20T04:43:31;95961.00;;;4.60
10869;BMP180;62667;48.698;8.762;2023-12-20T04:45:58;95955.00;;;4.60
10869;BMP180;62667;48.698;8.762;2023-12-20T04:48:25;95976.00;;;4.60
10869;BMP180;62667;48.698;8.762;2023-12-20T04:50:52;95973.00;;;4.60
10869;BMP180;62667;48.698;8.762;2023-12-20T04:53:19;95984.00;;;4.40
10869;BMP180;62667;48.698;8.762;2023-12-20T04:55:46;95983.00;;;4.50
10869;BMP180;62667;48.698;8.762;2023-12-20T04:58:15;95975.00;;;4.50
10869;BMP180;62667;48.698;8.762;2023-12-20T05:00:42;95980.00;;;4.50
10869;BMP180;62667;48.698;8.762;2023-12-20T05:03:09;95989.00;;;4.50
10869;BMP180;62667;48.698;8.762;2023-12-20T05:05:36;95985.00;;;4.50
10869;BMP180;62667;48.698;8.762;2023-12-20T05:08:03;95997.00;;;4.50
10869;BMP180;62667;48.698;8.762;2023-12-20T05:10:30;95995.00;;;4.60
10869;BMP180;62667;48.698;8.762;2023-12-20T05:12:58;96001.00;;;4.60
10869;BMP180;62667;48.698;8.762;2023-12-20T05:15:26;95998.00;;;4.50
10869;BMP180;62667;48.698;8.762;2023-12-20T05:17:53;96010.00;;;4.50
10869;BMP180;62667;48.698;8.762;2023-12-20T05:20:20;96012.00;;;4.50
10869;BMP180;62667;48.698;8.762;2023-12-20T05:22:47;96008.00;;;4.50
10869;BMP180;62667;48.698;8.762;2023-12-20T05:25:14;96015.00;;;4.50
10869;BMP180;62667;48.698;8.762;2023-12-20T05:27:41;96017.00;;;4.50
10869;BMP180;62667;48.698;8.762;2023-12-20T05:30:12;96025.00;;;4.50
10869;BMP180;62667;48.698;8.762;2023-12-20T05:32:41;96028.00;;;4.60
10869;BMP180;62667;48.698;8.762;2023-12-20T05:35:08;96023.00;;;4.60
10869;BMP180;62667;48.698;8.762;2023-12-20T05:37:35;96033.00;;;4.50
10869;BMP180;62667;48.698;8.762;2023-12-20T05:40:02;96041.00;;;4.70
10869;BMP180;62667;48.698;8.762;2023-12-20T05:42:30;96045.00;;;4.70
10869;BMP180;62667;48.698;8.762;2023-12-20T05:44:57;96038.00;;;4.80
10869;BMP180;62667;48.698;8.762;2023-12-20T05:47:24;96047.00;;;4.70
10869;BMP180;62667;48.698;8.762;2023-12-20T05:49:52;96048.00;;;4.70
10869;BMP180;62667;48.698;8.762;2023-12-20T05:52:19;96043.00;;;4.70
10869;BMP180;62667;48.698;8.762;2023-12-20T05:54:46;96036.00;;;4.60
10869;BMP180;62667;48.698;8.762;2023-12-20T05:57:14;96034.00;;;4.70
10869;BMP180;62667;48.698;8.762;2023-12-20T05:59:41;96048.00;;;4.70
10869;BMP180;62667;48.698;8.762;2023-12-20T06:02:08;96056.00;;;4.70
10869;BMP180;62667;48.698;8.762;2023-12-20T06:04:35;96061.00;;;4.70
10869;BMP180;62667;48.698;8.762;2023-12-20T06:07:03;96065.00;;;4.70
10869;BMP180;62667;48.698;8.762;2023-12-20T06:09:30;96073.00;;;4.60
10869;BMP180;62667;48.698;8.762;2023-12-20T06:11:58;96065.00;;;4.60
10869;BMP180;62667;48.698;8.762;2023-12-20T06:14:25;96067.00;;;4.50
10869;BMP180;62667;48.698;8.762;2023-12-20T06:16:52;96064.00;;;4.40
10869;BMP180;62667;48.698;8.762;2023-12-20T06:19:19;96066.00;;;4.40
10869;BMP180;62667;48.698;8.762;2023-12-20T06:21:46;96068.00;;;4.40
10869;BMP180;62667;48.698;8.762;2023-12-20T06:24:14;96068.00;;;4.50
10869;BMP180;62667;48.698;8.762;2023-12-20T06:26:42;96073.00;;;4.60
10869;BMP180;62667;48.698;8.762;2023-12-20T06:29:09;96061.00;;;4.50
10869;BMP180;62667;48.698;8.762;2023-12-20T06:31:37;96066.00;;;4.50
10869;BMP180;62667;48.698;8.762;2023-12-20T06:34:04;96067.00;;;4.60
10869;BMP180;62667;48.698;8.762;2023-12-20T06:36:31;96075.00;;;4.60
10869;BMP180;62667;48.698;8.762;2023-12-20T06:38:58;96078.00;;;4.50
10869;BMP180;62667;48.698;8.762;2023-12-20T06:41:26;96086.00;;;4.60
10869;BMP180;62667;48.698;8.762;2023-12-20T06:43:53;96085.00;;;4.60
10869;BMP180;62667;48.698;8.762;2023-12-20T06:46:20;96087.00;;;4.50
10869;BMP180;62667;48.698;8.762;2023-12-20T06:48:47;96089.00;;;4.40
10869;BMP180;62667;48.698;8.762;2023-12-20T06:51:16;96082.00;;;4.30
10869;BMP180;62667;48.698;8.762;2023-12-20T06:53:43;96087.00;;;4.60
10869;BMP180;62667;48.698;8.762;2023-12-20T06:56:11;96103.00;;;4.50
10869;BMP180;62667;48.698;8.762;2023-12-20T06:58:40;96110.00;;;4.50
10869;BMP180;62667;48.698;8.762;2023-12-20T07:01:11;96103.00;;;4.50
10869;BMP180;62667;48.698;8.762;2023-12-20T07:03:38;96109.00;;;4.40
10869;BMP180;62667;48.698;8.762;2023-12-20T07:06:06;96117.00;;;4.40
10869;BMP180;62667;48.698;8.762;2023-12-20T07:08:33;96118.00;;;4.40
10869;BMP180;62667;48.698;8.762;2023-12-20T07:11:00;96112.00;;;4.40
10869;BMP180;62667;48.698;8.762;2023-12-20T07:13:27;96120.00;;;4.50
10869;BMP180;62667;48.698;8.762;2023-12-20T07:15:55;96126.00;;;4.30
10869;BMP180;62667;48.698;8.762;2023-12-20T07:18:22;96118.00;;;4.40
10869;BMP180;62667;48.698;8.762;2023-12-20T07:20:50;96106.00;;;4.40
10869;BMP180;62667;48.698;8.762;2023-12-20T07:23:17;96128.00;;;4.50
10869;BMP180;62667;48.698;8.762;2023-12-20T07:25:45;96129.00;;;4.40
10869;BMP180;62667;48.698;8.762;2023-12-20T07:28:12;96131.00;;;4.40
10869;BMP180;62667;48.698;8.762;2023-12-20T07:30:39;96133.00;;;4.40
10869;BMP180;62667;48.698;8.762;2023-12-20T07:33:08;96136.00;;;4.30
10869;BMP180;62667;48.698;8.762;2023-12-20T07:35:36;96143.00;;;4.40
10869;BMP180;62667;48.698;8.762;2023-12-20T07:38:03;96145.00;;;4.50
10869;BMP180;62667;48.698;8.762;2023-12-20T07:40:30;96137.00;;;4.40
10869;BMP180;62667;48.698;8.762;2023-12-20T07:42:57;96134.00;;;4.40
10869;BMP180;62667;48.698;8.762;2023-12-20T07:45:24;96138.00;;;4.60
10869;BMP180;62667;48.698;8.762;2023-12-20T07:47:52;96141.00;;;4.40
10869;BMP180;62667;48.698;8.762;2023-12-20T07:50:20;96139.00;;;4.50
10869;BMP180;62667;48.698;8.762;2023-12-20T07:52:47;96147.00;;;4.50
10869;BMP180;62667;48.698;8.762;2023-12-20T07:55:14;96146.00;;;4.40
10869;BMP180;62667;48.698;8.762;2023-12-20T07:57:42;96145.00;;;4.50
10869;BMP180;62667;48.698;8.762;2023-12-20T08:00:10;96156.00;;;4.60
10869;BMP180;62667;48.698;8.762;2023-12-20T08:02:37;96161.00;;;4.40
10869;BMP180;62667;48.698;8.762;2023-12-20T08:05:05;96159.00;;;4.50
10869;BMP180;62667;48.698;8.762;2023-12-20T08:07:33;96171.00;;;4.30
10869;BMP180;62667;48.698;8.762;2023-12-20T08:10:01;96166.00;;;4.30
10869;BMP180;62667;48.698;8.762;2023-12-20T08:12:28;96159.00;;;4.20
10869;BMP180;62667;48.698;8.762;2023-12-20T08:14:55;96162.00;;;4.10
10869;BMP180;62667;48.698;8.762;2023-12-20T08:17:23;96184.00;;;4.10
10869;BMP180;62667;48.698;8.762;2023-12-20T08:19:51;96199.00;;;4.00
10869;BMP180;62667;48.698;8.762;2023-12-20T08:22:18;96173.00;;;4.00
10869;BMP180;62667;48.698;8.762;2023-12-20T08:24:46;96186.00;;;4.10
10869;BMP180;62667;48.698;8.762;2023-12-20T08:27:13;96166.00;;;3.70
10869;BMP180;62667;48.698;8.762;2023-12-20T08:29:43;96177.00;;;3.70
10869;BMP180;62667;48.698;8.762;2023-12-20T08:32:10;96177.00;;;3.70
10869;BMP180;62667;48.698;8.762;2023-12-20T08:34:37;96175.00;;;3.70
10869;BMP180;62667;48.698;8.762;2023-12-20T08:37:05;96179.00;;;3.70
10869;BMP180;62667;48.698;8.762;2023-12-20T08:39:32;96184.00;;;3.60
10869;BMP180;62667;48.698;8.762;2023-12-20T08:42:01;96190.00;;;3.60
10869;BMP180;62667;48.698;8.762;2023-12-20T08:44:28;96183.00;;;3.50
10869;BMP180;62667;48.698;8.762;2023-12-20T08:46:55;96193.00;;;3.50
10869;BMP180;62667;48.698;8.762;2023-12-20T08:49:23;96194.00;;;3.40
10869;BMP180;62667;48.698;8.762;2023-12-20T08:51:53;96200.00;;;3.40
10869;BMP180;62667;48.698;8.762;2023-12-20T08:54:24;96199.00;;;3.40
10869;BMP180;62667;48.698;8.762;2023-12-20T08:56:51;96200.00;;;3.50
10869;BMP180;62667;48.698;8.762;2023-12-20T08:59:19;96207.00;;;3.50
10869;BMP180;62667;48.698;8.762;2023-12-20T09:01:46;96194.00;;;3.60
10869;BMP180;62667;48.698;8.762;2023-12-20T09:04:14;96183.00;;;3.80
10869;BMP180;62667;48.698;8.762;2023-12-20T09:06:41;96200.00;;;3.80
10869;BMP180;62667;48.698;8.762;2023-12-20T09:09:08;96202.00;;;3.80
10869;BMP180;62667;48.698;8.762;2023-12-20T09:11:39;96188.00;;;3.80
10869;BMP180;62667;48.698;8.762;2023-12-20T09:14:06;96188.00;;;3.90
10869;BMP180;62667;48.698;8.762;2023-12-20T09:16:35;96187.00;;;4.00
10869;BMP180;62667;48.698;8.762;2023-12-20T09:19:02;96184.00;;;4.10
10869;BMP180;62667;48.698;8.762;2023-12-20T09:21:29;96178.00;;;4.20
10869;BMP180;62667;48.698;8.762;2023-12-20T09:23:56;96180.00;;;4.20
10869;BMP180;62667;48.698;8.762;2023-12-20T09:26:23;96179.00;;;4.30
10869;BMP180;62667;48.698;8.762;2023-12-20T09:28:50;96166.00;;;4.40
10869;BMP180;62667;48.698;8.762;2023-12-20T09:31:17;96179.00;;;4.40
10869;BMP180;62667;48.698;8.762;2023-12-20T09:33:46;96182.00;;;4.50
10869;BMP180;62667;48.698;8.762;2023-12-20T09:36:13;96192.00;;;4.70
10869;BMP180;62667;48.698;8.762;2023-12-20T09:38:40;96195.00;;;4.70
10869;BMP180;62667;48.698;8.762;2023-12-20T09:41:10;96195.00;;;4.70
10869;BMP180;62667;48.698;8.762;2023-12-20T09:43:38;96196.00;;;4.60
10869;BMP180;62667;48.698;8.762;2023-12-20T09:46:07;96205.00;;;4.70
10869;BMP180;62667;48.698;8.762;2023-12-20T09:48:36;96198.00;;;4.50
10869;BMP180;62667;48.698;8.762;2023-12-20T09:51:04;96206.00;;;4.40
10869;BMP180;62667;48.698;8.762;2023-12-20T09:53:36;96217.00;;;4.20
10869;BMP180;62667;48.698;8.762;2023-12-20T09:56:06;96216.00;;;4.10
10869;BMP180;62667;48.698;8.762;2023-12-20T09:58:37;96215.00;;;4.40
10869;BMP180;62667;48.698;8.762;2023-12-20T10:01:06;96206.00;;;4.50
10869;BMP180;62667;48.698;8.762;2023-12-20T10:03:34;96210.00;;;4.30
10869;BMP180;62667;48.698;8.762;2023-12-20T10:06:03;96212.00;;;4.40
10869;BMP180;62667;48.698;8.762;2023-12-20T10:08:31;96217.00;;;4.30
10869;BMP180;62667;48.698;8.762;2023-12-20T10:10:58;96213.00;;;4.20
10869;BMP180;62667;48.698;8.762;2023-12-20T10:13:29;96199.00;;;4.10
10869;BMP180;62667;48.698;8.762;2023-12-20T10:15:57;96197.00;;;4.30
10869;BMP180;62667;48.698;8.762;2023-12-20T10:18:24;96195.00;;;4.10
10869;BMP180;62667;48.698;8.762;2023-12-20T10:20:51;96188.00;;;4.20
10869;BMP180;62667;48.698;8.762;2023-12-20T10:23:20;96212.00;;;4.40
10869;BMP180;62667;48.698;8.762;2023-12-20T10:25:56;96177.00;;;4.50
10869;BMP180;62667;48.698;8.762;2023-12-20T10:28:24;96179.00;;;4.70
10869;BMP180;62667;48.698;8.762;2023-12-20T10:30:54;96182.00;;;4.60
10869;BMP180;62667;48.698;8.762;2023-12-20T10:33:27;96197.00;;;4.30
10869;BMP180;62667;48.698;8.762;2023-12-20T10:35:55;96186.00;;;4.40
10869;BMP180;62667;48.698;8.762;2023-12-20T10:38:24;96176.00;;;4.40
10869;BMP180;62667;48.698;8.762;2023-12-20T10:40:57;96178.00;;;4.30
10869;BMP180;62667;48.698;8.762;2023-12-20T10:43:25;96181.00;;;4.40
10869;BMP180;62667;48.698;8.762;2023-12-20T10:45:53;96171.00;;;4.50
10869;BMP180;62667;48.698;8.762;2023-12-20T10:48:21;96175.00;;;4.50
10869;BMP180;62667;48.698;8.762;2023-12-20T10:50:56;96166.00;;;4.60
10869;BMP180;62667;48.698;8.762;2023-12-20T10:53:25;96170.00;;;4.70
10869;BMP180;62667;48.698;8.762;2023-12-20T10:55:55;96162.00;;;4.80
10869;BMP180;62667;48.698;8.762;2023-12-20T10:58:24;96167.00;;;4.80
10869;BMP180;62667;48.698;8.762;2023-12-20T11:01:00;96168.00;;;4.70
10869;BMP180;62667;48.698;8.762;2023-12-20T11:03:31;96166.00;;;4.80
10869;BMP180;62667;48.698;8.762;2023-12-20T11:06:09;96171.00;;;4.80
10869;BMP180;62667;48.698;8.762;2023-12-20T11:08:50;96165.00;;;4.50
10869;BMP180;62667;48.698;8.762;2023-12-20T11:11:28;96165.00;;;4.70
10869;BMP180;62667;48.698;8.762;2023-12-20T11:14:03;96169.00;;;4.60
10869;BMP180;62667;48.698;8.762;2023-12-20T11:16:31;96164.00;;;4.60
10869;BMP180;62667;48.698;8.762;2023-12-20T11:19:05;96148.00;;;4.60
10869;BMP180;62667;48.698;8.762;2023-12-20T11:21:33;96146.00;;;4.30
10869;BMP180;62667;48.698;8.762;2023-12-20T11:24:03;96156.00;;;4.20
10869;BMP180;62667;48.698;8.762;2023-12-20T11:26:31;96155.00;;;4.30
10869;BMP180;62667;48.698;8.762;2023-12-20T11:29:33;96153.00;;;4.20
10869;BMP180;62667;48.698;8.762;2023-12-20T11:32:28;96145.00;;;4.10
10869;BMP180;62667;48.698;8.762;2023-12-20T11:34:56;96142.00;;;4.20
10869;BMP180;62667;48.698;8.762;2023-12-20T11:37:29;96154.00;;;4.00
10869;BMP180;62667;48.698;8.762;2023-12-20T11:40:06;96123.00;;;4.10
10869;BMP180;62667;48.698;8.762;2023-12-20T11:42:38;96150.00;;;4.30
10869;BMP180;62667;48.698;8.762;2023-12-20T11:45:09;96148.00;;;4.50
10869;BMP180;62667;48.698;8.762;2023-12-20T11:47:36;96123.00;;;4.50
10869;BMP180;62667;48.698;8.762;2023-12-20T11:50:06;96142.00;;;4.70
10869;BMP180;62667;48.698;8.762;2023-12-20T11:52:33;96154.00;;;4.70
10869;BMP180;62667;48.698;8.762;2023-12-20T11:55:01;96146.00;;;4.50
10869;BMP180;62667;48.698;8.762;2023-12-20T11:57:29;96133.00;;;4.30
10869;BMP180;62667;48.698;8.762;2023-12-20T11:59:56;96140.00;;;4.50
10869;BMP180;62667;48.698;8.762;2023-12-20T12:02:24;96137.00;;;4.40
10869;BMP180;62667;48.698;8.762;2023-12-20T12:04:51;96126.00;;;4.40
10869;BMP180;62667;48.698;8.762;2023-12-20T12:07:18;96138.00;;;4.60
10869;BMP180;62667;48.698;8.762;2023-12-20T12:09:46;96135.00;;;4.60
10869;BMP180;62667;48.698;8.762;2023-12-20T12:12:15;96129.00;;;4.60
10869;BMP180;62667;48.698;8.762;2023-12-20T12:14:42;96142.00;;;4.40
10869;BMP180;62667;48.698;8.762;2023-12-20T12:17:11;96135.00;;;4.70
10869;BMP180;62667;48.698;8.762;2023-12-20T12:19:39;96117.00;;;4.90
10869;BMP180;62667;48.698;8.762;2023-12-20T12:22:07;96131.00;;;4.80
10869;BMP180;62667;48.698;8.762;2023-12-20T12:24:38;96119.00;;;4.60
10869;BMP180;62667;48.698;8.762;2023-12-20T12:27:08;96130.00;;;4.50
10869;BMP180;62667;48.698;8.762;2023-12-20T12:29:37;96124.00;;;4.60
10869;BMP180;62667;48.698;8.762;2023-12-20T12:32:05;96113.00;;;4.90
10869;BMP180;62667;48.698;8.762;2023-12-20T12:34:33;96111.00;;;5.00
10869;BMP180;62667;48.698;8.762;2023-12-20T12:37:01;96103.00;;;4.60
10869;BMP180;62667;48.698;8.762;2023-12-20T12:39:30;96109.00;;;4.90
10869;BMP180;62667;48.698;8.762;2023-12-20T12:41:57;96112.00;;;5.10
10869;BMP180;62667;48.698;8.762;2023-12-20T12:44:26;96121.00;;;4.80
10869;BMP180;62667;48.698;8.762;2023-12-20T12:46:54;96123.00;;;4.80
10869;BMP180;62667;48.698;8.762;2023-12-20T12:49:22;96113.00;;;4.80
10869;BMP180;62667;48.698;8.762;2023-12-20T12:51:50;96117.00;;;4.80
10869;BMP180;62667;48.698;8.762;2023-12-20T12:54:17;96114.00;;;4.70
10869;BMP180;62667;48.698;8.762;2023-12-20T12:56:45;96142.00;;;4.70
10869;BMP180;62667;48.698;8.762;2023-12-20T12:59:13;96125.00;;;4.80
10869;BMP180;62667;48.698;8.762;2023-12-20T13:01:40;96095.00;;;5.50
10869;BMP180;62667;48.698;8.762;2023-12-20T13:04:09;96094.00;;;5.80
10869;BMP180;62667;48.698;8.762;2023-12-20T13:06:37;96103.00;;;6.10
10869;BMP180;62667;48.698;8.762;2023-12-20T13:09:04;96100.00;;;6.00
10869;BMP180;62667;48.698;8.762;2023-12-20T13:11:32;96095.00;;;5.80
10869;BMP180;62667;48.698;8.762;2023-12-20T13:13:59;96103.00;;;5.30
10869;BMP180;62667;48.698;8.762;2023-12-20T13:16:26;96101.00;;;5.60
10869;BMP180;62667;48.698;8.762;2023-12-20T13:18:53;96092.00;;;5.90
10869;BMP180;62667;48.698;8.762;2023-12-20T13:21:23;96105.00;;;6.00
10869;BMP180;62667;48.698;8.762;2023-12-20T13:23:50;96098.00;;;7.80
10869;BMP180;62667;48.698;8.762;2023-12-20T13:26:18;96131.00;;;6.90
10869;BMP180;62667;48.698;8.762;2023-12-20T13:28:45;96116.00;;;6.20
10869;BMP180;62667;48.698;8.762;2023-12-20T13:31:12;96111.00;;;5.50
10869;BMP180;62667;48.698;8.762;2023-12-20T13:33:39;96124.00;;;5.30
10869;BMP180;62667;48.698;8.762;2023-12-20T13:36:07;96116.00;;;5.30
10869;BMP180;62667;48.698;8.762;2023-12-20T13:38:36;96119.00;;;5.20
10869;BMP180;62667;48.698;8.762;2023-12-20T13:41:03;96085.00;;;5.60
10869;BMP180;62667;48.698;8.762;2023-12-20T13:43:31;96109.00;;;7.30
10869;BMP180;62667;48.698;8.762;2023-12-20T13:45:59;96098.00;;;6.20
10869;BMP180;62667;48.698;8.762;2023-12-20T13:48:26;96107.00;;;6.10
10869;BMP180;62667;48.698;8.762;2023-12-20T13:50:53;96117.00;;;5.70
10869;BMP180;62667;48.698;8.762;2023-12-20T13:53:20;96120.00;;;5.20
10869;BMP180;62667;48.698;8.762;2023-12-20T13:55:49;96124.00;;;5.00
10869;BMP180;62667;48.698;8.762;2023-12-20T13:58:16;96125.00;;;4.50
10869;BMP180;62667;48.698;8.762;2023-12-20T14:00:43;96121.00;;;4.40
10869;BMP180;62667;48.698;8.762;2023-12-20T14:03:11;96118.00;;;4.30
10869;BMP180;62667;48.698;8.762;2023-12-20T14:05:38;96109.00;;;4.50
10869;BMP180;62667;48.698;8.762;2023-12-20T14:08:06;96110.00;;;4.40
10869;BMP180;62667;48.698;8.762;2023-12-20T14:10:34;96107.00;;;4.30
10869;BMP180;62667;48.698;8.762;2023-12-20T14:13:02;96115.00;;;4.20
10869;BMP180;62667;48.698;8.762;2023-12-20T14:15:31;96110.00;;;4.10
10869;BMP180;62667;48.698;8.762;2023-12-20T14:18:04;96106.00;;;4.10
10869;BMP180;62667;48.698;8.762;2023-12-20T14:20:34;96094.00;;;4.10
10869;BMP180;62667;48.698;8.762;2023-12-20T14:23:03;96089.00;;;3.90
10869;BMP180;62667;48.698;8.762;2023-12-20T14:25:34;96085.00;;;3.90